sensor_id;sensor_type;location;lat;lon;timestamp;temperature;humidity
64650;HTU21D;51061;45.258;38.112;2022-07-03T00:00:45;20.01;60.63
64650;HTU21D;51061;45.258;38.112;2022-07-03T00:03:11;19.87;59.67
64650;HTU21D;51061;45.258;38.112;2022-07-03T00:05:37;19.97;60.41
64650;HTU21D;51061;45.258;38.112;2022-07-03T00:08:03;19.82;59.54
64650;HTU21D;51061;45.258;38.112;2022-07-03T00:10:30;19.90;60.25
64650;HTU21D;51061;45.258;38.112;2022-07-03T00:12:56;19.95;60.50
64650;HTU21D;51061;45.258;38.112;2022-07-03T00:15:22;19.79;59.64
64650;HTU21D;51061;45.258;38.112;2022-07-03T00:17:48;19.88;60.38
64650;HTU21D;51061;45.258;38.112;2022-07-03T00:20:14;19.89;60.64
64650;HTU21D;51061;45.258;38.112;2022-07-03T00:22:41;19.74;59.74
64650;HTU21D;51061;45.258;38.112;2022-07-03T00:25:10;19.85;60.37
64650;HTU21D;51061;45.258;38.112;2022-07-03T00:27:38;19.88;60.57
64650;HTU21D;51061;45.258;38.112;2022-07-03T00:30:06;19.89;60.63
64650;HTU21D;51061;45.258;38.112;2022-07-03T00:32:38;19.91;60.59
64650;HTU21D;51061;45.258;38.112;2022-07-03T00:35:05;19.91;60.67
64650;HTU21D;51061;45.258;38.112;2022-07-03T00:37:32;19.92;60.69
64650;HTU21D;51061;45.258;38.112;2022-07-03T00:39:58;19.73;60.04
64650;HTU21D;51061;45.258;38.112;2022-07-03T00:42:24;19.83;60.51
64650;HTU21D;51061;45.258;38.112;2022-07-03T00:44:56;19.84;60.42
64650;HTU21D;51061;45.258;38.112;2022-07-03T00:47:24;19.85;60.59
64650;HTU21D;51061;45.258;38.112;2022-07-03T00:49:55;19.84;60.54
64650;HTU21D;51061;45.258;38.112;2022-07-03T00:52:22;19.83;60.60
64650;HTU21D;51061;45.258;38.112;2022-07-03T00:54:53;19.83;60.48
64650;HTU21D;51061;45.258;38.112;2022-07-03T00:57:21;19.81;60.67
64650;HTU21D;51061;45.258;38.112;2022-07-03T00:59:48;19.81;60.70
64650;HTU21D;51061;45.258;38.112;2022-07-03T01:02:54;19.76;60.31
64650;HTU21D;51061;45.258;38.112;2022-07-03T01:05:27;19.75;60.54
64650;HTU21D;51061;45.258;38.112;2022-07-03T01:11:21;19.69;60.25
64650;HTU21D;51061;45.258;38.112;2022-07-03T01:17:05;19.67;60.38
64650;HTU21D;51061;45.258;38.112;2022-07-03T01:19:43;19.65;60.30
64650;HTU21D;51061;45.258;38.112;2022-07-03T01:22:32;19.65;60.36
64650;HTU21D;51061;45.258;38.112;2022-07-03T01:25:22;19.60;60.27
64650;HTU21D;51061;45.258;38.112;2022-07-03T01:30:32;19.61;60.38
64650;HTU21D;51061;45.258;38.112;2022-07-03T01:33:03;19.60;60.42
64650;HTU21D;51061;45.258;38.112;2022-07-03T01:35:36;19.61;60.33
64650;HTU21D;51061;45.258;38.112;2022-07-03T01:38:13;19.58;60.22
64650;HTU21D;51061;45.258;38.112;2022-07-03T01:40:41;19.58;60.42
64650;HTU21D;51061;45.258;38.112;2022-07-03T01:43:10;19.59;60.48
64650;HTU21D;51061;45.258;38.112;2022-07-03T01:45:43;19.58;60.38
64650;HTU21D;51061;45.258;38.112;2022-07-03T01:48:11;19.57;60.55
64650;HTU21D;51061;45.258;38.112;2022-07-03T01:50:39;19.57;60.58
64650;HTU21D;51061;45.258;38.112;2022-07-03T01:53:08;19.56;60.52
64650;HTU21D;51061;45.258;38.112;2022-07-03T01:55:38;19.57;60.56
64650;HTU21D;51061;45.258;38.112;2022-07-03T01:58:04;19.55;60.73
64650;HTU21D;51061;45.258;38.112;2022-07-03T02:00:31;19.56;60.80
64650;HTU21D;51061;45.258;38.112;2022-07-03T02:03:04;19.54;60.56
64650;HTU21D;51061;45.258;38.112;2022-07-03T02:11:08;19.47;60.51
64650;HTU21D;51061;45.258;38.112;2022-07-03T02:14:24;19.50;60.76
64650;HTU21D;51061;45.258;38.112;2022-07-03T02:16:25;19.48;60.85
64650;HTU21D;51061;45.258;38.112;2022-07-03T02:19:18;19.44;60.60
64650;HTU21D;51061;45.258;38.112;2022-07-03T02:21:49;19.46;60.96
64650;HTU21D;51061;45.258;38.112;2022-07-03T02:24:22;19.48;60.99
64650;HTU21D;51061;45.258;38.112;2022-07-03T02:26:53;19.51;61.24
64650;HTU21D;51061;45.258;38.112;2022-07-03T02:29:20;19.53;61.27
64650;HTU21D;51061;45.258;38.112;2022-07-03T02:31:58;19.54;61.17
64650;HTU21D;51061;45.258;38.112;2022-07-03T02:34:25;19.56;61.42
64650;HTU21D;51061;45.258;38.112;2022-07-03T02:36:57;19.58;61.25
64650;HTU21D;51061;45.258;38.112;2022-07-03T02:42:44;19.60;61.21
64650;HTU21D;51061;45.258;38.112;2022-07-03T02:45:12;19.63;61.70
64650;HTU21D;51061;45.258;38.112;2022-07-03T02:47:48;19.52;61.04
64650;HTU21D;51061;45.258;38.112;2022-07-03T02:50:27;19.62;61.25
64650;HTU21D;51061;45.258;38.112;2022-07-03T02:53:20;19.71;61.51
64650;HTU21D;51061;45.258;38.112;2022-07-03T02:55:47;19.76;61.58
64650;HTU21D;51061;45.258;38.112;2022-07-03T02:58:18;19.71;60.99
64650;HTU21D;51061;45.258;38.112;2022-07-03T03:03:35;19.94;61.11
64650;HTU21D;51061;45.258;38.112;2022-07-03T03:06:23;20.03;60.74
64650;HTU21D;51061;45.258;38.112;2022-07-03T03:09:04;20.14;60.60
64650;HTU21D;51061;45.258;38.112;2022-07-03T03:11:43;20.26;60.41
64650;HTU21D;51061;45.258;38.112;2022-07-03T03:14:15;20.36;60.17
64650;HTU21D;51061;45.258;38.112;2022-07-03T03:16:51;20.47;59.86
64650;HTU21D;51061;45.258;38.112;2022-07-03T03:19:22;20.60;59.65
64650;HTU21D;51061;45.258;38.112;2022-07-03T03:22:03;20.71;59.26
64650;HTU21D;51061;45.258;38.112;2022-07-03T03:24:33;20.81;58.98
64650;HTU21D;51061;45.258;38.112;2022-07-03T03:26:59;20.92;58.66
64650;HTU21D;51061;45.258;38.112;2022-07-03T03:29:27;21.07;58.16
64650;HTU21D;51061;45.258;38.112;2022-07-03T03:31:53;21.19;57.87
64650;HTU21D;51061;45.258;38.112;2022-07-03T03:34:20;21.30;57.63
64650;HTU21D;51061;45.258;38.112;2022-07-03T03:36:47;21.35;57.48
64650;HTU21D;51061;45.258;38.112;2022-07-03T03:39:14;21.32;57.64
64650;HTU21D;51061;45.258;38.112;2022-07-03T03:41:40;21.46;57.32
64650;HTU21D;51061;45.258;38.112;2022-07-03T03:44:06;21.44;57.36
64650;HTU21D;51061;45.258;38.112;2022-07-03T03:46:32;21.55;57.03
64650;HTU21D;51061;45.258;38.112;2022-07-03T03:48:57;21.54;57.11
64650;HTU21D;51061;45.258;38.112;2022-07-03T03:51:24;21.69;56.71
64650;HTU21D;51061;45.258;38.112;2022-07-03T03:53:50;21.80;56.36
64650;HTU21D;51061;45.258;38.112;2022-07-03T03:56:16;21.90;56.19
64650;HTU21D;51061;45.258;38.112;2022-07-03T03:58:43;21.99;56.07
64650;HTU21D;51061;45.258;38.112;2022-07-03T04:01:10;22.10;55.92
64650;HTU21D;51061;45.258;38.112;2022-07-03T04:03:38;22.21;55.81
64650;HTU21D;51061;45.258;38.112;2022-07-03T04:06:04;22.32;55.49
64650;HTU21D;51061;45.258;38.112;2022-07-03T04:08:31;22.41;55.29
64650;HTU21D;51061;45.258;38.112;2022-07-03T04:10:58;22.50;55.16
64650;HTU21D;51061;45.258;38.112;2022-07-03T04:13:24;22.57;54.92
64650;HTU21D;51061;45.258;38.112;2022-07-03T04:15:52;22.68;54.81
64650;HTU21D;51061;45.258;38.112;2022-07-03T04:18:19;22.76;54.45
64650;HTU21D;51061;45.258;38.112;2022-07-03T04:20:45;22.85;54.18
64650;HTU21D;51061;45.258;38.112;2022-07-03T04:23:11;22.82;54.48
64650;HTU21D;51061;45.258;38.112;2022-07-03T04:25:37;22.96;53.89
64650;HTU21D;51061;45.258;38.112;2022-07-03T04:28:03;23.07;53.62
64650;HTU21D;51061;45.258;38.112;2022-07-03T04:30:29;23.16;53.43
64650;HTU21D;51061;45.258;38.112;2022-07-03T04:32:55;23.28;53.01
64650;HTU21D;51061;45.258;38.112;2022-07-03T04:35:22;23.38;52.88
64650;HTU21D;51061;45.258;38.112;2022-07-03T04:37:48;23.52;52.30
64650;HTU21D;51061;45.258;38.112;2022-07-03T04:40:15;23.62;51.82
64650;HTU21D;51061;45.258;38.112;2022-07-03T04:42:41;23.72;51.53
64650;HTU21D;51061;45.258;38.112;2022-07-03T04:45:07;23.82;51.14
64650;HTU21D;51061;45.258;38.112;2022-07-03T04:47:34;23.91;50.77
64650;HTU21D;51061;45.258;38.112;2022-07-03T04:50:00;24.00;50.54
64650;HTU21D;51061;45.258;38.112;2022-07-03T04:52:26;24.09;50.25
64650;HTU21D;51061;45.258;38.112;2022-07-03T04:54:52;24.19;50.01
64650;HTU21D;51061;45.258;38.112;2022-07-03T04:57:18;24.27;49.62
64650;HTU21D;51061;45.258;38.112;2022-07-03T04:59:44;24.35;49.51
64650;HTU21D;51061;45.258;38.112;2022-07-03T05:02:10;24.46;49.31
64650;HTU21D;51061;45.258;38.112;2022-07-03T05:04:36;24.56;49.06
64650;HTU21D;51061;45.258;38.112;2022-07-03T05:07:02;24.65;48.66
64650;HTU21D;51061;45.258;38.112;2022-07-03T05:09:28;24.72;48.35
64650;HTU21D;51061;45.258;38.112;2022-07-03T05:11:54;24.83;48.20
64650;HTU21D;51061;45.258;38.112;2022-07-03T05:14:20;24.92;47.72
64650;HTU21D;51061;45.258;38.112;2022-07-03T05:16:46;25.04;47.40
64650;HTU21D;51061;45.258;38.112;2022-07-03T05:19:12;25.14;46.84
64650;HTU21D;51061;45.258;38.112;2022-07-03T05:21:38;25.24;46.60
64650;HTU21D;51061;45.258;38.112;2022-07-03T05:24:05;25.36;46.27
64650;HTU21D;51061;45.258;38.112;2022-07-03T05:26:31;25.45;45.93
64650;HTU21D;51061;45.258;38.112;2022-07-03T05:28:57;25.57;45.81
64650;HTU21D;51061;45.258;38.112;2022-07-03T05:31:23;25.68;45.57
64650;HTU21D;51061;45.258;38.112;2022-07-03T05:33:49;25.81;45.37
64650;HTU21D;51061;45.258;38.112;2022-07-03T05:36:15;25.93;44.87
64650;HTU21D;51061;45.258;38.112;2022-07-03T05:38:41;26.03;44.59
64650;HTU21D;51061;45.258;38.112;2022-07-03T05:41:25;26.13;44.51
64650;HTU21D;51061;45.258;38.112;2022-07-03T05:43:51;26.23;44.09
64650;HTU21D;51061;45.258;38.112;2022-07-03T05:46:17;26.33;43.82
64650;HTU21D;51061;45.258;38.112;2022-07-03T05:48:43;26.39;43.49
64650;HTU21D;51061;45.258;38.112;2022-07-03T05:51:09;26.49;43.27
64650;HTU21D;51061;45.258;38.112;2022-07-03T05:53:35;26.61;42.91
64650;HTU21D;51061;45.258;38.112;2022-07-03T05:56:02;26.71;41.90
64650;HTU21D;51061;45.258;38.112;2022-07-03T05:58:28;26.81;41.23
64650;HTU21D;51061;45.258;38.112;2022-07-03T06:00:54;26.90;40.98
64650;HTU21D;51061;45.258;38.112;2022-07-03T06:03:20;27.00;40.81
64650;HTU21D;51061;45.258;38.112;2022-07-03T06:05:46;27.12;40.39
64650;HTU21D;51061;45.258;38.112;2022-07-03T06:08:12;27.26;40.11
64650;HTU21D;51061;45.258;38.112;2022-07-03T06:10:38;27.41;39.88
64650;HTU21D;51061;45.258;38.112;2022-07-03T06:13:04;27.47;39.43
64650;HTU21D;51061;45.258;38.112;2022-07-03T06:15:30;27.56;39.10
64650;HTU21D;51061;45.258;38.112;2022-07-03T06:17:57;27.69;38.85
64650;HTU21D;51061;45.258;38.112;2022-07-03T06:20:23;27.80;38.35
64650;HTU21D;51061;45.258;38.112;2022-07-03T06:22:49;27.91;38.05
64650;HTU21D;51061;45.258;38.112;2022-07-03T06:25:15;28.03;37.88
64650;HTU21D;51061;45.258;38.112;2022-07-03T06:27:41;28.14;37.42
64650;HTU21D;51061;45.258;38.112;2022-07-03T06:30:09;28.24;37.02
64650;HTU21D;51061;45.258;38.112;2022-07-03T06:32:35;28.33;36.47
64650;HTU21D;51061;45.258;38.112;2022-07-03T06:35:01;28.40;36.50
64650;HTU21D;51061;45.258;38.112;2022-07-03T06:37:27;28.46;35.53
64650;HTU21D;51061;45.258;38.112;2022-07-03T06:39:53;28.52;35.34
64650;HTU21D;51061;45.258;38.112;2022-07-03T06:42:19;28.57;35.19
64650;HTU21D;51061;45.258;38.112;2022-07-03T06:44:47;28.62;34.90
64650;HTU21D;51061;45.258;38.112;2022-07-03T06:47:13;28.72;34.84
64650;HTU21D;51061;45.258;38.112;2022-07-03T06:49:39;28.82;34.86
64650;HTU21D;51061;45.258;38.112;2022-07-03T06:52:05;28.89;34.32
64650;HTU21D;51061;45.258;38.112;2022-07-03T06:54:31;28.98;33.90
64650;HTU21D;51061;45.258;38.112;2022-07-03T06:56:57;29.04;33.50
64650;HTU21D;51061;45.258;38.112;2022-07-03T06:59:23;29.14;33.14
64650;HTU21D;51061;45.258;38.112;2022-07-03T07:01:55;29.22;32.93
64650;HTU21D;51061;45.258;38.112;2022-07-03T07:04:21;29.31;32.33
64650;HTU21D;51061;45.258;38.112;2022-07-03T07:06:47;29.36;32.35
64650;HTU21D;51061;45.258;38.112;2022-07-03T07:09:13;29.46;32.02
64650;HTU21D;51061;45.258;38.112;2022-07-03T07:11:39;29.57;31.65
64650;HTU21D;51061;45.258;38.112;2022-07-03T07:14:06;29.66;31.66
64650;HTU21D;51061;45.258;38.112;2022-07-03T07:16:32;29.74;31.15
64650;HTU21D;51061;45.258;38.112;2022-07-03T07:18:58;29.82;30.71
64650;HTU21D;51061;45.258;38.112;2022-07-03T07:21:24;29.93;30.87
64650;HTU21D;51061;45.258;38.112;2022-07-03T07:23:50;29.98;30.34
64650;HTU21D;51061;45.258;38.112;2022-07-03T07:26:16;30.05;29.98
64650;HTU21D;51061;45.258;38.112;2022-07-03T07:28:44;30.04;29.64
64650;HTU21D;51061;45.258;38.112;2022-07-03T07:31:10;29.92;29.33
64650;HTU21D;51061;45.258;38.112;2022-07-03T07:33:36;29.94;29.51
64650;HTU21D;51061;45.258;38.112;2022-07-03T07:36:02;29.96;29.48
64650;HTU21D;51061;45.258;38.112;2022-07-03T07:38:28;30.06;29.29
64650;HTU21D;51061;45.258;38.112;2022-07-03T07:40:54;30.17;28.97
64650;HTU21D;51061;45.258;38.112;2022-07-03T07:43:20;30.24;28.86
64650;HTU21D;51061;45.258;38.112;2022-07-03T07:45:46;30.28;29.05
64650;HTU21D;51061;45.258;38.112;2022-07-03T07:48:12;30.37;29.01
64650;HTU21D;51061;45.258;38.112;2022-07-03T07:50:38;30.46;28.87
64650;HTU21D;51061;45.258;38.112;2022-07-03T07:53:04;30.54;28.61
64650;HTU21D;51061;45.258;38.112;2022-07-03T07:55:31;30.65;28.61
64650;HTU21D;51061;45.258;38.112;2022-07-03T07:57:57;30.70;28.13
64650;HTU21D;51061;45.258;38.112;2022-07-03T08:00:23;30.74;28.24
64650;HTU21D;51061;45.258;38.112;2022-07-03T08:02:49;30.78;28.09
64650;HTU21D;51061;45.258;38.112;2022-07-03T08:05:34;30.93;28.18
64650;HTU21D;51061;45.258;38.112;2022-07-03T08:08:15;30.97;28.00
64650;HTU21D;51061;45.258;38.112;2022-07-03T08:10:47;30.98;28.05
64650;HTU21D;51061;45.258;38.112;2022-07-03T08:13:15;31.01;27.53
64650;HTU21D;51061;45.258;38.112;2022-07-03T08:15:45;31.06;27.54
64650;HTU21D;51061;45.258;38.112;2022-07-03T08:18:15;31.13;27.04
64650;HTU21D;51061;45.258;38.112;2022-07-03T08:20:41;31.20;27.31
64650;HTU21D;51061;45.258;38.112;2022-07-03T08:23:07;31.34;27.33
64650;HTU21D;51061;45.258;38.112;2022-07-03T08:25:33;31.54;26.90
64650;HTU21D;51061;45.258;38.112;2022-07-03T08:27:59;31.66;26.79
64650;HTU21D;51061;45.258;38.112;2022-07-03T08:30:26;32.38;25.51
64650;HTU21D;51061;45.258;38.112;2022-07-03T08:32:54;33.78;23.08
64650;HTU21D;51061;45.258;38.112;2022-07-03T08:35:21;34.79;21.60
64650;HTU21D;51061;45.258;38.112;2022-07-03T08:37:47;35.34;20.95
64650;HTU21D;51061;45.258;38.112;2022-07-03T08:40:15;35.82;20.53
64650;HTU21D;51061;45.258;38.112;2022-07-03T08:42:47;36.49;19.72
64650;HTU21D;51061;45.258;38.112;2022-07-03T08:45:18;37.21;18.80
64650;HTU21D;51061;45.258;38.112;2022-07-03T08:47:45;37.67;18.16
64650;HTU21D;51061;45.258;38.112;2022-07-03T08:50:13;38.21;17.59
64650;HTU21D;51061;45.258;38.112;2022-07-03T08:52:40;38.56;16.83
64650;HTU21D;51061;45.258;38.112;2022-07-03T08:55:07;38.74;16.38
64650;HTU21D;51061;45.258;38.112;2022-07-03T08:57:36;39.29;15.53
64650;HTU21D;51061;45.258;38.112;2022-07-03T09:00:05;39.99;14.36
64650;HTU21D;51061;45.258;38.112;2022-07-03T09:02:32;40.15;14.02
64650;HTU21D;51061;45.258;38.112;2022-07-03T09:04:59;40.36;13.89
64650;HTU21D;51061;45.258;38.112;2022-07-03T09:07:31;40.74;13.37
64650;HTU21D;51061;45.258;38.112;2022-07-03T09:10:00;41.07;13.01
64650;HTU21D;51061;45.258;38.112;2022-07-03T09:12:26;41.29;12.88
64650;HTU21D;51061;45.258;38.112;2022-07-03T09:14:52;41.51;12.55
64650;HTU21D;51061;45.258;38.112;2022-07-03T09:17:18;41.58;12.48
64650;HTU21D;51061;45.258;38.112;2022-07-03T09:19:46;41.67;12.43
64650;HTU21D;51061;45.258;38.112;2022-07-03T09:22:21;42.05;12.18
64650;HTU21D;51061;45.258;38.112;2022-07-03T09:25:07;42.33;11.72
64650;HTU21D;51061;45.258;38.112;2022-07-03T09:27:42;42.52;11.58
64650;HTU21D;51061;45.258;38.112;2022-07-03T09:30:17;42.55;11.65
64650;HTU21D;51061;45.258;38.112;2022-07-03T09:32:48;42.43;11.43
64650;HTU21D;51061;45.258;38.112;2022-07-03T09:35:24;42.63;11.09
64650;HTU21D;51061;45.258;38.112;2022-07-03T09:38:02;43.06;10.70
64650;HTU21D;51061;45.258;38.112;2022-07-03T09:40:54;43.67;10.53
64650;HTU21D;51061;45.258;38.112;2022-07-03T09:43:30;43.85;10.13
64650;HTU21D;51061;45.258;38.112;2022-07-03T09:46:00;44.03;9.93
64650;HTU21D;51061;45.258;38.112;2022-07-03T09:48:45;44.80;9.57
64650;HTU21D;51061;45.258;38.112;2022-07-03T09:51:12;44.91;9.27
64650;HTU21D;51061;45.258;38.112;2022-07-03T09:54:18;44.42;9.63
64650;HTU21D;51061;45.258;38.112;2022-07-03T09:56:38;43.98;10.00
64650;HTU21D;51061;45.258;38.112;2022-07-03T10:01:34;43.57;9.80
64650;HTU21D;51061;45.258;38.112;2022-07-03T10:04:29;44.52;9.59
64650;HTU21D;51061;45.258;38.112;2022-07-03T10:06:57;44.37;9.05
64650;HTU21D;51061;45.258;38.112;2022-07-03T10:09:32;44.44;9.11
64650;HTU21D;51061;45.258;38.112;2022-07-03T10:12:01;44.71;8.77
64650;HTU21D;51061;45.258;38.112;2022-07-03T10:14:32;42.92;10.08
64650;HTU21D;51061;45.258;38.112;2022-07-03T10:16:58;41.71;10.76
64650;HTU21D;51061;45.258;38.112;2022-07-03T10:19:28;42.52;10.19
64650;HTU21D;51061;45.258;38.112;2022-07-03T10:21:57;43.55;9.57
64650;HTU21D;51061;45.258;38.112;2022-07-03T10:24:26;44.46;9.28
64650;HTU21D;51061;45.258;38.112;2022-07-03T10:26:53;44.31;9.83
64650;HTU21D;51061;45.258;38.112;2022-07-03T10:29:23;43.41;10.85
64650;HTU21D;51061;45.258;38.112;2022-07-03T10:31:49;41.79;12.36
64650;HTU21D;51061;45.258;38.112;2022-07-03T10:34:25;40.48;13.59
64650;HTU21D;51061;45.258;38.112;2022-07-03T10:36:57;41.01;13.33
64650;HTU21D;51061;45.258;38.112;2022-07-03T10:42:19;43.51;10.98
64650;HTU21D;51061;45.258;38.112;2022-07-03T10:47:49;44.99;10.38
64650;HTU21D;51061;45.258;38.112;2022-07-03T10:50:20;43.90;10.95
64650;HTU21D;51061;45.258;38.112;2022-07-03T10:52:50;42.38;12.22
64650;HTU21D;51061;45.258;38.112;2022-07-03T10:55:17;42.49;12.33
64650;HTU21D;51061;45.258;38.112;2022-07-03T10:58:07;43.61;11.56
64650;HTU21D;51061;45.258;38.112;2022-07-03T11:00:54;44.80;10.72
64650;HTU21D;51061;45.258;38.112;2022-07-03T11:03:54;45.65;10.14
64650;HTU21D;51061;45.258;38.112;2022-07-03T11:09:13;44.11;10.94
64650;HTU21D;51061;45.258;38.112;2022-07-03T11:11:43;44.38;10.70
64650;HTU21D;51061;45.258;38.112;2022-07-03T11:14:23;44.75;10.44
64650;HTU21D;51061;45.258;38.112;2022-07-03T11:17:18;45.18;10.32
64650;HTU21D;51061;45.258;38.112;2022-07-03T11:19:49;44.06;10.83
64650;HTU21D;51061;45.258;38.112;2022-07-03T11:22:44;42.13;12.36
64650;HTU21D;51061;45.258;38.112;2022-07-03T11:25:13;40.68;13.84
64650;HTU21D;51061;45.258;38.112;2022-07-03T11:27:41;39.68;14.87
64650;HTU21D;51061;45.258;38.112;2022-07-03T11:30:08;38.79;15.85
64650;HTU21D;51061;45.258;38.112;2022-07-03T11:32:47;38.01;16.71
64650;HTU21D;51061;45.258;38.112;2022-07-03T11:36:08;37.32;17.45
64650;HTU21D;51061;45.258;38.112;2022-07-03T11:38:31;36.77;18.16
64650;HTU21D;51061;45.258;38.112;2022-07-03T11:40:59;36.36;18.31
64650;HTU21D;51061;45.258;38.112;2022-07-03T11:43:26;35.96;18.83
64650;HTU21D;51061;45.258;38.112;2022-07-03T11:45:52;35.63;19.23
64650;HTU21D;51061;45.258;38.112;2022-07-03T11:48:22;35.31;19.79
64650;HTU21D;51061;45.258;38.112;2022-07-03T11:50:50;35.04;20.18
64650;HTU21D;51061;45.258;38.112;2022-07-03T11:53:20;34.88;20.51
64650;HTU21D;51061;45.258;38.112;2022-07-03T11:55:48;34.74;20.73
64650;HTU21D;51061;45.258;38.112;2022-07-03T11:58:17;34.55;20.89
64650;HTU21D;51061;45.258;38.112;2022-07-03T12:00:44;34.35;21.31
64650;HTU21D;51061;45.258;38.112;2022-07-03T12:03:22;34.14;21.52
64650;HTU21D;51061;45.258;38.112;2022-07-03T12:05:58;33.96;21.65
64650;HTU21D;51061;45.258;38.112;2022-07-03T12:08:31;33.80;21.75
64650;HTU21D;51061;45.258;38.112;2022-07-03T12:11:09;33.64;21.81
64650;HTU21D;51061;45.258;38.112;2022-07-03T12:13:36;33.50;21.97
64650;HTU21D;51061;45.258;38.112;2022-07-03T12:16:10;33.33;22.25
64650;HTU21D;51061;45.258;38.112;2022-07-03T12:18:46;33.14;22.48
64650;HTU21D;51061;45.258;38.112;2022-07-03T12:21:13;33.00;22.76
64650;HTU21D;51061;45.258;38.112;2022-07-03T12:23:53;32.87;22.92
64650;HTU21D;51061;45.258;38.112;2022-07-03T12:26:32;32.77;22.85
64650;HTU21D;51061;45.258;38.112;2022-07-03T12:29:00;32.68;22.89
64650;HTU21D;51061;45.258;38.112;2022-07-03T12:31:27;32.55;23.21
64650;HTU21D;51061;45.258;38.112;2022-07-03T12:33:55;32.44;23.37
64650;HTU21D;51061;45.258;38.112;2022-07-03T12:36:21;32.31;23.43
64650;HTU21D;51061;45.258;38.112;2022-07-03T12:38:49;32.23;23.51
64650;HTU21D;51061;45.258;38.112;2022-07-03T12:41:17;32.14;23.63
64650;HTU21D;51061;45.258;38.112;2022-07-03T12:43:46;32.02;23.78
64650;HTU21D;51061;45.258;38.112;2022-07-03T12:48:59;31.83;24.03
64650;HTU21D;51061;45.258;38.112;2022-07-03T12:51:40;31.70;24.12
64650;HTU21D;51061;45.258;38.112;2022-07-03T12:56:36;31.56;24.43
64650;HTU21D;51061;45.258;38.112;2022-07-03T12:59:25;31.43;24.61
64650;HTU21D;51061;45.258;38.112;2022-07-03T13:02:05;31.33;24.78
64650;HTU21D;51061;45.258;38.112;2022-07-03T13:04:36;31.21;25.01
64650;HTU21D;51061;45.258;38.112;2022-07-03T13:07:03;31.14;25.14
64650;HTU21D;51061;45.258;38.112;2022-07-03T13:09:32;31.06;25.37
64650;HTU21D;51061;45.258;38.112;2022-07-03T13:12:00;30.97;25.64
64650;HTU21D;51061;45.258;38.112;2022-07-03T13:14:27;30.91;25.94
64650;HTU21D;51061;45.258;38.112;2022-07-03T13:16:55;30.83;26.00
64650;HTU21D;51061;45.258;38.112;2022-07-03T13:19:23;30.76;26.15
64650;HTU21D;51061;45.258;38.112;2022-07-03T13:21:52;30.71;26.24
64650;HTU21D;51061;45.258;38.112;2022-07-03T13:24:19;30.61;26.52
64650;HTU21D;51061;45.258;38.112;2022-07-03T13:26:47;30.51;26.45
64650;HTU21D;51061;45.258;38.112;2022-07-03T13:29:13;30.41;26.75
64650;HTU21D;51061;45.258;38.112;2022-07-03T13:31:39;30.35;26.94
64650;HTU21D;51061;45.258;38.112;2022-07-03T13:34:05;30.27;26.99
64650;HTU21D;51061;45.258;38.112;2022-07-03T13:36:32;30.22;27.04
64650;HTU21D;51061;45.258;38.112;2022-07-03T13:38:58;30.15;27.20
64650;HTU21D;51061;45.258;38.112;2022-07-03T13:41:25;30.08;27.23
64650;HTU21D;51061;45.258;38.112;2022-07-03T13:43:52;30.01;27.40
64650;HTU21D;51061;45.258;38.112;2022-07-03T13:46:19;29.95;27.46
64650;HTU21D;51061;45.258;38.112;2022-07-03T13:48:48;29.89;27.68
64650;HTU21D;51061;45.258;38.112;2022-07-03T13:51:14;29.83;27.89
64650;HTU21D;51061;45.258;38.112;2022-07-03T13:53:40;29.79;27.97
64650;HTU21D;51061;45.258;38.112;2022-07-03T13:56:06;29.72;28.14
64650;HTU21D;51061;45.258;38.112;2022-07-03T13:58:32;29.63;28.22
64650;HTU21D;51061;45.258;38.112;2022-07-03T14:00:58;29.58;28.36
64650;HTU21D;51061;45.258;38.112;2022-07-03T14:03:25;29.51;28.49
64650;HTU21D;51061;45.258;38.112;2022-07-03T14:05:51;29.44;28.49
64650;HTU21D;51061;45.258;38.112;2022-07-03T14:08:26;29.36;28.54
64650;HTU21D;51061;45.258;38.112;2022-07-03T14:10:52;29.32;28.71
64650;HTU21D;51061;45.258;38.112;2022-07-03T14:13:18;29.29;28.88
64650;HTU21D;51061;45.258;38.112;2022-07-03T14:15:44;29.23;28.93
64650;HTU21D;51061;45.258;38.112;2022-07-03T14:18:10;29.18;29.03
64650;HTU21D;51061;45.258;38.112;2022-07-03T14:20:37;29.12;29.22
64650;HTU21D;51061;45.258;38.112;2022-07-03T14:23:03;29.06;29.21
64650;HTU21D;51061;45.258;38.112;2022-07-03T14:25:28;28.99;29.21
64650;HTU21D;51061;45.258;38.112;2022-07-03T14:27:55;28.92;29.38
64650;HTU21D;51061;45.258;38.112;2022-07-03T14:30:39;28.84;29.38
64650;HTU21D;51061;45.258;38.112;2022-07-03T14:33:23;28.78;29.40
64650;HTU21D;51061;45.258;38.112;2022-07-03T14:35:50;28.75;29.54
64650;HTU21D;51061;45.258;38.112;2022-07-03T14:38:16;28.69;29.58
64650;HTU21D;51061;45.258;38.112;2022-07-03T14:40:42;28.63;29.77
64650;HTU21D;51061;45.258;38.112;2022-07-03T14:43:08;28.57;29.81
64650;HTU21D;51061;45.258;38.112;2022-07-03T14:45:34;28.49;29.81
64650;HTU21D;51061;45.258;38.112;2022-07-03T14:48:00;28.46;29.94
64650;HTU21D;51061;45.258;38.112;2022-07-03T14:50:27;28.40;29.94
64650;HTU21D;51061;45.258;38.112;2022-07-03T14:52:53;28.37;30.16
64650;HTU21D;51061;45.258;38.112;2022-07-03T14:55:26;28.32;30.20
64650;HTU21D;51061;45.258;38.112;2022-07-03T14:58:06;28.24;30.19
64650;HTU21D;51061;45.258;38.112;2022-07-03T15:00:36;28.19;30.26
64650;HTU21D;51061;45.258;38.112;2022-07-03T15:03:05;28.16;30.42
64650;HTU21D;51061;45.258;38.112;2022-07-03T15:05:33;28.14;30.54
64650;HTU21D;51061;45.258;38.112;2022-07-03T15:08:48;28.08;30.53
64650;HTU21D;51061;45.258;38.112;2022-07-03T15:11:20;28.03;30.53
64650;HTU21D;51061;45.258;38.112;2022-07-03T15:14:04;27.93;30.57
64650;HTU21D;51061;45.258;38.112;2022-07-03T15:16:33;27.89;30.64
64650;HTU21D;51061;45.258;38.112;2022-07-03T15:19:00;27.86;30.75
64650;HTU21D;51061;45.258;38.112;2022-07-03T15:21:37;27.80;30.87
64650;HTU21D;51061;45.258;38.112;2022-07-03T15:24:07;27.78;31.00
64650;HTU21D;51061;45.258;38.112;2022-07-03T15:26:33;27.72;31.19
64650;HTU21D;51061;45.258;38.112;2022-07-03T15:29:01;27.68;31.11
64650;HTU21D;51061;45.258;38.112;2022-07-03T15:31:28;27.65;31.03
64650;HTU21D;51061;45.258;38.112;2022-07-03T15:33:55;27.58;31.09
64650;HTU21D;51061;45.258;38.112;2022-07-03T15:36:27;27.54;31.16
64650;HTU21D;51061;45.258;38.112;2022-07-03T15:39:03;27.49;31.09
64650;HTU21D;51061;45.258;38.112;2022-07-03T15:41:51;27.40;31.24
64650;HTU21D;51061;45.258;38.112;2022-07-03T15:44:31;27.38;31.34
64650;HTU21D;51061;45.258;38.112;2022-07-03T15:47:15;27.31;31.46
64650;HTU21D;51061;45.258;38.112;2022-07-03T15:49:51;27.29;31.69
64650;HTU21D;51061;45.258;38.112;2022-07-03T15:52:23;27.25;31.79
64650;HTU21D;51061;45.258;38.112;2022-07-03T15:54:55;27.23;31.94
64650;HTU21D;51061;45.258;38.112;2022-07-03T16:00:15;27.14;32.02